Terminal Aerodrome Forecast
Issued by NWS

Home | Current Version | Previous Version | Text Only | Print | Product List | Glossary On
Versions: 1 2 3 4 5 6 7 8 9 10 11 12 13 14 15 16 17 18 19 20 21 22 23 24 25 26 27 28 29
000
FTUS45 KGJT 212343
TAFMTJ
TAF
KMTJ 212343Z 2200/2224 15008KT P6SM SCT070 BKN100
     FM221500 VRB03KT P6SM SCT100
     FM221900 28007KT P6SM SCT100=

USA.gov is the U.S. government's official web portal to all federal, state and local government web resources and services.